Taunton 2W

41° 53' 56"N, 71° 08' 19"W, Elevation 50 ft.
Eastern Time

Hourly observations for the last 72 hours

Date Time Temperature (°F) Humi-
dity

(%)
Wind
(mph)
Pressure Rain (in) Sun
(W/m2)
UV ET
(in)
Air Dew 6 Hour 1 Hr 3 Hr 6 Hr Day
Alt
(in)
Sea
Level

(mb)
Max Min
9 17:00 30.3 18.8 62 SW 2 G 5 30.22 1023.4 0.00 0 0.0 0.031
9 16:00 31.3 19.0 60 SSW 4 G 8 30.24 1024.0 0.00 11 0.0 0.029
9 15:00 32.9 19.7 58 WSW 5 G 10 30.26 1024.7 0.00 79 0.0 0.026
9 14:00 34.2 19.7 55 WSW 6 G 12 30.28 1025.5 0.00 158 0.5 0.021
9 13:00 34.4 19.5 35.0 9.6 54 WSW 12 G 15 30.32 1026.8 0.00 336 0.9 0.015
9 12:00 33.8 20.2 57 WSW 5 G 11 30.33 1027.3 0.00 432 1.2 0.009
9 11:00 31.1 20.7 65 SSW 4 G 11 30.37 1028.5 0.00 294 1.0 0.005
9 10:00 28.7 20.2 70 W 6 G 11 30.42 1030.1 0.00 250 0.7 0.002
9 09:00 24.5 19.8 82 WNW 1 G 3 30.43 1030.6 0.00 218 0.0 0.000
9 08:00 13.4 11.0 90 Calm 30.44 1030.9 0.00 97 0.0 0.000
9 07:00 9.8 7.2 10.7 9.4 89 NW 0 G 2 30.44 1030.9 0.00 0 0.0 0.000
9 06:00 9.9 7.3 89 NW 0 G 1 30.46 1031.5 0.00 0 0.0 0.000
9 05:00 10.2 7.6 89 Calm 30.44 1030.8 0.00 0 0.0 0.000
9 04:00 10.4 7.8 89 Calm 30.45 1031.1 0.00 0 0.0 0.000
9 03:00 10.2 7.4 88 Calm 30.47 1032.0 0.00 0 0.0 0.000
9 02:00 10.3 7.5 88 Calm 30.48 1032.1 0.00 0 0.0 0.000
9 01:00 10.6 7.5 16.4 10.5 87 Calm 30.47 1032.0 0.00 0 0.0 0.000
9 00:00 10.6 7.2 86 Calm 30.48 1032.1 0.00 0 0.0 0.049
8 23:00 11.2 7.6 85 Calm 30.47 1032.0 0.00 0 0.0 0.049
8 22:00 11.9 7.7 83 Calm 30.47 1031.9 0.00 0 0.0 0.049
8 21:00 12.7 7.4 79 Calm 30.47 1031.7 0.00 0 0.0 0.049
8 20:00 14.2 8.0 76 Calm 30.47 1031.9 0.00 0 0.0 0.049
8 19:00 16.4 8.6 31.0 16.3 71 NW 1 G 2 30.45 1031.3 0.00 0 0.0 0.049
8 18:00 19.0 9.2 65 Calm 30.43 1030.6 0.00 0 0.0 0.048
8 17:00 23.1 11.3 60 NW 0 G 2 30.41 1029.7 0.00 0 0.0 0.047
8 16:00 28.1 3.9 35 W 1 G 6 30.38 1028.9 0.00 11 0.0 0.045
8 15:00 30.5 3.4 31 WNW 5 G 14 30.37 1028.4 0.00 146 0.0 0.040
8 14:00 30.3 4.6 33 NW 8 G 19 30.36 1028.3 0.00 283 0.5 0.033
8 13:00 29.8 6.7 30.1 15.9 37 NW 9 G 15 30.37 1028.5 0.00 392 0.8 0.026
8 12:00 28.2 7.5 41 WNW 11 G 15 30.39 1029.1 0.00 445 1.1 0.019
8 11:00 26.6 6.6 42 WNW 6 G 17 30.41 1029.9 0.00 452 1.0 0.012
8 10:00 24.5 7.6 48 WNW 9 G 15 30.43 1030.5 0.00 404 0.8 0.007
8 09:00 23.0 9.2 55 WNW 7 G 14 30.42 1030.3 0.00 294 0.0 0.004
8 08:00 19.3 9.5 65 NW 3 G 6 30.41 1029.9 0.00 183 0.0 0.003
8 07:00 16.9 7.2 19.1 15.3 65 WNW 1 G 4 30.39 1029.2 0.00 7 0.0 0.003
8 06:00 17.9 7.8 64 NW 4 G 8 30.39 1029.1 0.00 0 0.0 0.002
8 05:00 18.5 8.3 64 WNW 4 G 8 30.39 1029.1 0.00 0 0.0 0.001
8 04:00 18.7 9.9 68 NW 3 G 7 30.39 1029.2 0.00 0 0.0 0.001
8 03:00 15.4 10.6 81 W 2 G 4 30.39 1029.0 0.00 0 0.0 0.001
8 02:00 16.6 12.1 82 W 2 G 5 30.38 1028.6 0.00 0 0.0 0.001
8 01:00 18.7 11.5 28.5 18.7 73 W 2 G 3 30.36 1028.3 0.00 0 0.0 0.000
8 00:00 22.0 11.7 64 W 2 G 4 30.37 1028.6 0.00 0 0.0 0.074
7 23:00 24.3 11.3 57 WNW 3 G 7 30.37 1028.4 0.00 0 0.0 0.073
7 22:00 25.5 11.6 55 WNW 5 G 8 30.36 1028.1 0.00 0 0.0 0.072
7 21:00 26.8 12.0 53 W 3 G 7 30.35 1027.8 0.00 0 0.0 0.071
7 20:00 27.5 11.7 51 W 4 G 7 30.34 1027.5 0.00 0 0.0 0.070
7 19:00 28.4 11.7 38.6 27.8 49 NW 4 G 8 30.32 1026.7 0.00 0 0.0 0.069
7 18:00 29.4 11.2 46 W 3 G 8 30.30 1026.0 0.00 0 0.0 0.067
7 17:00 30.9 11.5 44 W 3 G 9 30.27 1025.2 0.00 0 0.0 0.065
7 16:00 33.7 11.4 39 NW 4 G 14 30.25 1024.2 0.00 11 0.0 0.061
7 15:00 36.9 12.4 36 NW 10 G 20 30.23 1023.8 0.00 153 0.0 0.054
7 14:00 38.0 12.8 35 W 10 G 18 30.22 1023.2 0.00 292 0.5 0.045
7 13:00 38.4 14.4 39.5 32.2 37 NW 13 G 19 30.20 1022.8 0.00 397 0.9 0.035
7 12:00 38.2 16.6 41 WNW 12 G 23 30.20 1022.9 0.00 455 1.1 0.025
7 11:00 38.0 19.6 47 NW 12 G 21 30.21 1023.2 0.00 454 1.1 0.016
7 10:00 37.3 21.3 52 W 12 G 19 30.21 1023.1 0.00 397 0.8 0.009
7 09:00 36.5 23.9 60 WNW 7 G 15 30.19 1022.6 0.00 290 0.0 0.005
7 08:00 33.6 26.2 74 W 6 G 15 30.17 1021.6 0.00 144 0.0 0.004
7 07:00 32.2 26.4 34.8 32.0 79 W 6 G 9 30.15 1021.0 0.00 5 0.0 0.004
7 06:00 32.6 27.4 81 SW 4 G 10 30.11 1019.7 0.00 0 0.0 0.000
7 05:00 33.4 29.1 84 SW 4 G 10 30.10 1019.3 0.00 0 0.0 0.000
7 04:00 33.4 30.0 87 SW 4 G 10 30.09 1019.0 0.00 0 0.0 0.000
7 03:00 32.9 28.9 85 SW 5 G 11 30.09 1019.1 0.00 0 0.0 0.000
7 02:00 33.9 29.0 82 SW 6 G 16 30.09 1018.9 0.00 0 0.0 0.000
7 01:00 35.0 24.8 35.2 32.4 66 SW 5 G 11 30.08 1018.6 0.00 0 0.0 0.000
7 00:00 34.1 23.6 65 SW 3 G 9 30.08 1018.7 0.00 0 0.0 0.056
6 23:00 33.2 22.7 65 SW 2 G 5 30.09 1018.9 0.00 0 0.0 0.055
6 22:00 33.2 22.7 65 SSW 3 G 4 30.10 1019.3 0.00 0 0.0 0.054
6 21:00 33.5 22.6 64 SSW 3 G 9 30.10 1019.5 0.00 0 0.0 0.053
6 20:00 32.9 22.4 65 SSW 3 G 9 30.10 1019.2 0.00 0 0.0 0.052
6 19:00 32.8 22.3 41.4 29.8 65 SW 3 G 7 30.09 1019.0 0.00 0 0.0 0.051
6 18:00 32.5 21.7 64 SW 2 G 4 30.08 1018.8 0.00 0 0.0 0.050

Data generated by WxSolution Version 1.9.1.7, Build 2018.11.24.